sensor_id;sensor_type;location;lat;lon;timestamp;P1;durP1;ratioP1;P2;durP2;ratioP2
72951;SDS011;61102;51.956;5.878;2022-11-06T00:01:17;7.10;;;1.60;;
72951;SDS011;61102;51.956;5.878;2022-11-06T00:03:43;6.03;;;1.98;;
72951;SDS011;61102;51.956;5.878;2022-11-06T00:06:11;10.70;;;2.70;;
72951;SDS011;61102;51.956;5.878;2022-11-06T00:08:57;5.65;;;1.65;;
72951;SDS011;61102;51.956;5.878;2022-11-06T00:11:24;5.65;;;1.40;;
72951;SDS011;61102;51.956;5.878;2022-11-06T00:13:51;5.40;;;1.48;;
72951;SDS011;61102;51.956;5.878;2022-11-06T00:16:17;6.07;;;1.60;;
72951;SDS011;61102;51.956;5.878;2022-11-06T00:18:50;7.65;;;1.40;;
72951;SDS011;61102;51.956;5.878;2022-11-06T00:21:19;6.00;;;1.58;;
72951;SDS011;61102;51.956;5.878;2022-11-06T00:23:47;8.65;;;1.70;;
72951;SDS011;61102;51.956;5.878;2022-11-06T00:26:20;4.43;;;1.25;;
72951;SDS011;61102;51.956;5.878;2022-11-06T00:29:02;5.85;;;1.25;;
72951;SDS011;61102;51.956;5.878;2022-11-06T00:31:33;6.93;;;1.38;;
72951;SDS011;61102;51.956;5.878;2022-11-06T00:36:32;6.05;;;1.85;;
72951;SDS011;61102;51.956;5.878;2022-11-06T00:39:05;5.78;;;1.70;;
72951;SDS011;61102;51.956;5.878;2022-11-06T00:41:42;4.88;;;1.40;;
72951;SDS011;61102;51.956;5.878;2022-11-06T00:44:08;5.15;;;1.17;;
72951;SDS011;61102;51.956;5.878;2022-11-06T00:46:35;6.57;;;1.85;;
72951;SDS011;61102;51.956;5.878;2022-11-06T00:49:01;4.72;;;0.90;;
72951;SDS011;61102;51.956;5.878;2022-11-06T00:51:29;9.50;;;1.70;;
72951;SDS011;61102;51.956;5.878;2022-11-06T00:54:01;5.05;;;1.33;;
72951;SDS011;61102;51.956;5.878;2022-11-06T00:56:29;6.28;;;1.52;;
72951;SDS011;61102;51.956;5.878;2022-11-06T00:59:00;8.55;;;1.50;;
72951;SDS011;61102;51.956;5.878;2022-11-06T01:01:29;7.00;;;1.80;;
72951;SDS011;61102;51.956;5.878;2022-11-06T01:04:03;5.78;;;1.45;;
72951;SDS011;61102;51.956;5.878;2022-11-06T01:06:33;5.05;;;1.60;;
72951;SDS011;61102;51.956;5.878;2022-11-06T01:09:01;6.38;;;1.52;;
72951;SDS011;61102;51.956;5.878;2022-11-06T01:11:30;7.35;;;1.60;;
72951;SDS011;61102;51.956;5.878;2022-11-06T01:13:58;8.70;;;1.60;;
72951;SDS011;61102;51.956;5.878;2022-11-06T01:16:26;4.25;;;1.23;;
72951;SDS011;61102;51.956;5.878;2022-11-06T01:21:29;5.30;;;1.40;;
72951;SDS011;61102;51.956;5.878;2022-11-06T01:24:04;5.72;;;1.33;;
72951;SDS011;61102;51.956;5.878;2022-11-06T01:26:32;4.07;;;1.08;;
72951;SDS011;61102;51.956;5.878;2022-11-06T01:28:59;6.45;;;0.93;;
72951;SDS011;61102;51.956;5.878;2022-11-06T01:31:27;5.85;;;1.05;;
72951;SDS011;61102;51.956;5.878;2022-11-06T01:33:55;6.95;;;1.77;;
72951;SDS011;61102;51.956;5.878;2022-11-06T01:36:22;4.47;;;1.20;;
72951;SDS011;61102;51.956;5.878;2022-11-06T01:38:50;5.63;;;1.33;;
72951;SDS011;61102;51.956;5.878;2022-11-06T01:41:18;5.65;;;1.10;;
72951;SDS011;61102;51.956;5.878;2022-11-06T01:43:59;5.75;;;1.30;;
72951;SDS011;61102;51.956;5.878;2022-11-06T01:46:27;5.05;;;1.25;;
72951;SDS011;61102;51.956;5.878;2022-11-06T01:48:58;6.28;;;1.13;;
72951;SDS011;61102;51.956;5.878;2022-11-06T01:51:58;3.35;;;0.80;;
72951;SDS011;61102;51.956;5.878;2022-11-06T01:54:28;5.05;;;0.80;;
72951;SDS011;61102;51.956;5.878;2022-11-06T01:56:56;4.72;;;0.93;;
72951;SDS011;61102;51.956;5.878;2022-11-06T01:59:28;4.40;;;0.82;;
72951;SDS011;61102;51.956;5.878;2022-11-06T02:01:56;5.65;;;1.20;;
72951;SDS011;61102;51.956;5.878;2022-11-06T02:04:23;6.07;;;1.20;;
72951;SDS011;61102;51.956;5.878;2022-11-06T02:06:51;8.90;;;1.30;;
72951;SDS011;61102;51.956;5.878;2022-11-06T02:09:24;5.22;;;1.30;;
72951;SDS011;61102;51.956;5.878;2022-11-06T02:11:57;4.95;;;0.95;;
72951;SDS011;61102;51.956;5.878;2022-11-06T02:14:55;4.82;;;1.08;;
72951;SDS011;61102;51.956;5.878;2022-11-06T02:17:51;4.25;;;0.80;;
72951;SDS011;61102;51.956;5.878;2022-11-06T02:20:32;3.47;;;0.73;;
72951;SDS011;61102;51.956;5.878;2022-11-06T02:26:07;3.55;;;0.90;;
72951;SDS011;61102;51.956;5.878;2022-11-06T02:28:50;5.57;;;1.20;;
72951;SDS011;61102;51.956;5.878;2022-11-06T02:31:23;9.05;;;1.30;;
72951;SDS011;61102;51.956;5.878;2022-11-06T02:33:59;3.35;;;0.80;;
72951;SDS011;61102;51.956;5.878;2022-11-06T02:36:33;4.07;;;0.80;;
72951;SDS011;61102;51.956;5.878;2022-11-06T02:39:03;3.85;;;0.60;;
72951;SDS011;61102;51.956;5.878;2022-11-06T02:41:36;4.80;;;0.90;;
72951;SDS011;61102;51.956;5.878;2022-11-06T02:44:05;3.92;;;0.80;;
72951;SDS011;61102;51.956;5.878;2022-11-06T02:46:36;3.90;;;0.80;;
72951;SDS011;61102;51.956;5.878;2022-11-06T02:49:10;4.68;;;0.93;;
72951;SDS011;61102;51.956;5.878;2022-11-06T02:51:45;4.40;;;1.00;;
72951;SDS011;61102;51.956;5.878;2022-11-06T02:54:16;3.30;;;0.73;;
72951;SDS011;61102;51.956;5.878;2022-11-06T02:56:50;4.45;;;1.15;;
72951;SDS011;61102;51.956;5.878;2022-11-06T03:00:05;7.82;;;1.35;;
72951;SDS011;61102;51.956;5.878;2022-11-06T03:05:48;3.63;;;0.70;;
72951;SDS011;61102;51.956;5.878;2022-11-06T03:08:35;5.43;;;1.00;;
72951;SDS011;61102;51.956;5.878;2022-11-06T03:11:19;6.72;;;1.05;;
72951;SDS011;61102;51.956;5.878;2022-11-06T03:13:55;2.80;;;0.60;;
72951;SDS011;61102;51.956;5.878;2022-11-06T03:16:32;4.85;;;0.80;;
72951;SDS011;61102;51.956;5.878;2022-11-06T03:19:06;4.78;;;0.90;;
72951;SDS011;61102;51.956;5.878;2022-11-06T03:30:41;5.65;;;1.10;;
72951;SDS011;61102;51.956;5.878;2022-11-06T03:33:31;5.07;;;1.05;;
72951;SDS011;61102;51.956;5.878;2022-11-06T03:38:51;4.72;;;1.00;;
72951;SDS011;61102;51.956;5.878;2022-11-06T03:41:24;3.95;;;0.70;;
72951;SDS011;61102;51.956;5.878;2022-11-06T03:44:03;4.57;;;0.90;;
72951;SDS011;61102;51.956;5.878;2022-11-06T03:46:31;4.15;;;0.77;;
72951;SDS011;61102;51.956;5.878;2022-11-06T03:49:03;3.60;;;0.80;;
72951;SDS011;61102;51.956;5.878;2022-11-06T03:51:46;5.70;;;0.98;;
72951;SDS011;61102;51.956;5.878;2022-11-06T03:54:39;4.63;;;0.70;;
72951;SDS011;61102;51.956;5.878;2022-11-06T03:57:26;6.63;;;0.90;;
72951;SDS011;61102;51.956;5.878;2022-11-06T03:59:59;3.78;;;0.90;;
72951;SDS011;61102;51.956;5.878;2022-11-06T04:02:38;4.03;;;0.95;;
72951;SDS011;61102;51.956;5.878;2022-11-06T04:05:18;3.85;;;0.90;;
72951;SDS011;61102;51.956;5.878;2022-11-06T04:07:48;3.08;;;0.80;;
72951;SDS011;61102;51.956;5.878;2022-11-06T04:10:38;5.22;;;0.70;;
72951;SDS011;61102;51.956;5.878;2022-11-06T04:13:28;2.00;;;0.60;;
72951;SDS011;61102;51.956;5.878;2022-11-06T04:16:15;3.42;;;0.63;;
72951;SDS011;61102;51.956;5.878;2022-11-06T04:18:42;3.80;;;0.70;;
72951;SDS011;61102;51.956;5.878;2022-11-06T04:21:29;4.78;;;0.75;;
72951;SDS011;61102;51.956;5.878;2022-11-06T04:27:26;2.38;;;0.50;;
72951;SDS011;61102;51.956;5.878;2022-11-06T04:32:39;2.03;;;0.50;;
72951;SDS011;61102;51.956;5.878;2022-11-06T04:35:14;3.70;;;0.70;;
72951;SDS011;61102;51.956;5.878;2022-11-06T04:38:14;1.85;;;0.50;;
72951;SDS011;61102;51.956;5.878;2022-11-06T04:44:12;2.78;;;0.63;;
72951;SDS011;61102;51.956;5.878;2022-11-06T04:46:53;3.75;;;0.60;;
72951;SDS011;61102;51.956;5.878;2022-11-06T04:49:28;5.07;;;0.80;;
72951;SDS011;61102;51.956;5.878;2022-11-06T04:51:57;3.97;;;0.65;;
72951;SDS011;61102;51.956;5.878;2022-11-06T04:54:26;6.72;;;1.08;;
72951;SDS011;61102;51.956;5.878;2022-11-06T04:56:55;5.35;;;0.70;;
72951;SDS011;61102;51.956;5.878;2022-11-06T04:59:26;4.45;;;0.82;;
72951;SDS011;61102;51.956;5.878;2022-11-06T05:01:57;4.88;;;0.82;;
72951;SDS011;61102;51.956;5.878;2022-11-06T05:04:23;5.75;;;0.80;;
72951;SDS011;61102;51.956;5.878;2022-11-06T05:06:50;6.75;;;0.95;;
72951;SDS011;61102;51.956;5.878;2022-11-06T05:09:17;4.13;;;0.80;;
72951;SDS011;61102;51.956;5.878;2022-11-06T05:11:43;3.78;;;0.80;;
72951;SDS011;61102;51.956;5.878;2022-11-06T05:14:09;3.08;;;0.73;;
72951;SDS011;61102;51.956;5.878;2022-11-06T05:16:36;1.30;;;0.47;;
72951;SDS011;61102;51.956;5.878;2022-11-06T05:19:02;4.05;;;0.98;;
72951;SDS011;61102;51.956;5.878;2022-11-06T05:21:29;2.97;;;0.47;;
72951;SDS011;61102;51.956;5.878;2022-11-06T05:24:16;4.13;;;0.50;;
72951;SDS011;61102;51.956;5.878;2022-11-06T05:26:43;2.53;;;0.70;;
72951;SDS011;61102;51.956;5.878;2022-11-06T05:29:10;2.58;;;0.60;;
72951;SDS011;61102;51.956;5.878;2022-11-06T05:31:37;3.80;;;0.70;;
72951;SDS011;61102;51.956;5.878;2022-11-06T05:34:04;7.45;;;0.90;;
72951;SDS011;61102;51.956;5.878;2022-11-06T05:36:30;1.95;;;0.50;;
72951;SDS011;61102;51.956;5.878;2022-11-06T05:38:56;3.90;;;0.75;;
72951;SDS011;61102;51.956;5.878;2022-11-06T05:41:22;6.93;;;0.95;;
72951;SDS011;61102;51.956;5.878;2022-11-06T05:43:49;4.70;;;1.00;;
72951;SDS011;61102;51.956;5.878;2022-11-06T05:46:15;4.32;;;0.60;;
72951;SDS011;61102;51.956;5.878;2022-11-06T05:48:41;3.50;;;0.70;;
72951;SDS011;61102;51.956;5.878;2022-11-06T05:51:07;5.45;;;1.00;;
72951;SDS011;61102;51.956;5.878;2022-11-06T05:53:34;7.15;;;1.10;;
72951;SDS011;61102;51.956;5.878;2022-11-06T05:56:03;6.97;;;1.20;;
72951;SDS011;61102;51.956;5.878;2022-11-06T05:58:29;5.57;;;0.93;;
72951;SDS011;61102;51.956;5.878;2022-11-06T06:00:56;3.78;;;1.08;;
72951;SDS011;61102;51.956;5.878;2022-11-06T06:03:23;5.80;;;1.17;;
72951;SDS011;61102;51.956;5.878;2022-11-06T06:08:17;6.40;;;1.20;;
72951;SDS011;61102;51.956;5.878;2022-11-06T06:10:44;5.20;;;1.00;;
72951;SDS011;61102;51.956;5.878;2022-11-06T06:13:14;5.53;;;0.90;;
72951;SDS011;61102;51.956;5.878;2022-11-06T06:15:44;5.85;;;0.73;;
72951;SDS011;61102;51.956;5.878;2022-11-06T06:18:11;4.03;;;0.88;;
72951;SDS011;61102;51.956;5.878;2022-11-06T06:20:45;6.65;;;1.10;;
72951;SDS011;61102;51.956;5.878;2022-11-06T06:23:12;5.72;;;0.98;;
72951;SDS011;61102;51.956;5.878;2022-11-06T06:25:39;6.43;;;1.02;;
72951;SDS011;61102;51.956;5.878;2022-11-06T06:28:08;4.95;;;0.90;;
72951;SDS011;61102;51.956;5.878;2022-11-06T06:30:34;5.53;;;0.90;;
72951;SDS011;61102;51.956;5.878;2022-11-06T06:33:04;3.83;;;0.70;;
72951;SDS011;61102;51.956;5.878;2022-11-06T06:35:43;4.22;;;0.88;;
72951;SDS011;61102;51.956;5.878;2022-11-06T06:38:10;5.25;;;1.00;;
72951;SDS011;61102;51.956;5.878;2022-11-06T06:40:36;5.03;;;0.77;;
72951;SDS011;61102;51.956;5.878;2022-11-06T06:43:06;6.10;;;0.95;;
72951;SDS011;61102;51.956;5.878;2022-11-06T06:45:32;6.75;;;0.93;;
72951;SDS011;61102;51.956;5.878;2022-11-06T06:48:02;5.20;;;1.00;;
72951;SDS011;61102;51.956;5.878;2022-11-06T06:53:14;4.60;;;0.85;;
72951;SDS011;61102;51.956;5.878;2022-11-06T06:55:41;4.90;;;0.90;;
72951;SDS011;61102;51.956;5.878;2022-11-06T06:58:07;4.63;;;1.08;;
72951;SDS011;61102;51.956;5.878;2022-11-06T07:00:35;3.38;;;0.73;;
72951;SDS011;61102;51.956;5.878;2022-11-06T07:03:04;6.68;;;0.85;;
72951;SDS011;61102;51.956;5.878;2022-11-06T07:05:30;5.13;;;0.90;;
72951;SDS011;61102;51.956;5.878;2022-11-06T07:07:57;3.97;;;0.85;;
72951;SDS011;61102;51.956;5.878;2022-11-06T07:10:23;6.50;;;1.27;;
72951;SDS011;61102;51.956;5.878;2022-11-06T07:12:53;5.00;;;1.10;;
72951;SDS011;61102;51.956;5.878;2022-11-06T07:15:23;3.90;;;0.75;;
72951;SDS011;61102;51.956;5.878;2022-11-06T07:17:52;6.50;;;1.00;;
72951;SDS011;61102;51.956;5.878;2022-11-06T07:20:21;5.32;;;0.93;;
72951;SDS011;61102;51.956;5.878;2022-11-06T07:22:53;4.28;;;0.70;;
72951;SDS011;61102;51.956;5.878;2022-11-06T07:25:19;6.07;;;0.98;;
72951;SDS011;61102;51.956;5.878;2022-11-06T07:27:46;4.90;;;0.90;;
72951;SDS011;61102;51.956;5.878;2022-11-06T07:30:12;6.15;;;1.20;;
72951;SDS011;61102;51.956;5.878;2022-11-06T07:32:38;9.45;;;1.00;;
72951;SDS011;61102;51.956;5.878;2022-11-06T07:35:05;5.57;;;0.75;;
72951;SDS011;61102;51.956;5.878;2022-11-06T07:37:31;4.82;;;0.95;;
72951;SDS011;61102;51.956;5.878;2022-11-06T07:39:58;4.25;;;0.80;;
72951;SDS011;61102;51.956;5.878;2022-11-06T07:42:24;3.65;;;0.65;;
72951;SDS011;61102;51.956;5.878;2022-11-06T07:44:57;4.20;;;0.90;;
72951;SDS011;61102;51.956;5.878;2022-11-06T07:47:25;7.30;;;0.80;;
72951;SDS011;61102;51.956;5.878;2022-11-06T07:49:55;3.70;;;0.82;;
72951;SDS011;61102;51.956;5.878;2022-11-06T07:52:21;7.93;;;1.35;;
72951;SDS011;61102;51.956;5.878;2022-11-06T07:54:48;5.38;;;0.98;;
72951;SDS011;61102;51.956;5.878;2022-11-06T07:57:14;5.75;;;0.82;;
72951;SDS011;61102;51.956;5.878;2022-11-06T07:59:43;5.70;;;0.80;;
72951;SDS011;61102;51.956;5.878;2022-11-06T08:02:10;5.10;;;0.90;;
72951;SDS011;61102;51.956;5.878;2022-11-06T08:04:40;5.32;;;0.90;;
72951;SDS011;61102;51.956;5.878;2022-11-06T08:07:06;5.50;;;0.90;;
72951;SDS011;61102;51.956;5.878;2022-11-06T08:09:35;6.22;;;1.00;;
72951;SDS011;61102;51.956;5.878;2022-11-06T08:12:04;5.40;;;0.93;;
72951;SDS011;61102;51.956;5.878;2022-11-06T08:14:30;3.88;;;0.90;;
72951;SDS011;61102;51.956;5.878;2022-11-06T08:16:56;4.72;;;1.00;;
72951;SDS011;61102;51.956;5.878;2022-11-06T08:19:23;6.68;;;1.00;;
72951;SDS011;61102;51.956;5.878;2022-11-06T08:21:50;6.85;;;1.00;;
72951;SDS011;61102;51.956;5.878;2022-11-06T08:24:17;5.15;;;0.90;;
72951;SDS011;61102;51.956;5.878;2022-11-06T08:26:43;4.63;;;0.77;;
72951;SDS011;61102;51.956;5.878;2022-11-06T08:29:09;6.38;;;0.98;;
72951;SDS011;61102;51.956;5.878;2022-11-06T08:31:35;5.30;;;0.80;;
72951;SDS011;61102;51.956;5.878;2022-11-06T08:34:02;6.00;;;0.93;;
72951;SDS011;61102;51.956;5.878;2022-11-06T08:36:39;6.43;;;0.93;;
72951;SDS011;61102;51.956;5.878;2022-11-06T08:39:10;5.88;;;0.70;;
72951;SDS011;61102;51.956;5.878;2022-11-06T08:41:38;3.85;;;0.80;;
72951;SDS011;61102;51.956;5.878;2022-11-06T08:44:05;6.15;;;1.00;;
72951;SDS011;61102;51.956;5.878;2022-11-06T08:46:31;4.72;;;0.70;;
72951;SDS011;61102;51.956;5.878;2022-11-06T08:48:57;5.32;;;0.90;;
72951;SDS011;61102;51.956;5.878;2022-11-06T08:51:26;7.55;;;0.90;;
72951;SDS011;61102;51.956;5.878;2022-11-06T08:53:53;5.88;;;1.10;;
72951;SDS011;61102;51.956;5.878;2022-11-06T08:56:19;5.60;;;0.80;;
72951;SDS011;61102;51.956;5.878;2022-11-06T08:58:45;6.70;;;1.10;;
72951;SDS011;61102;51.956;5.878;2022-11-06T09:01:14;5.13;;;0.82;;
72951;SDS011;61102;51.956;5.878;2022-11-06T09:03:41;3.80;;;0.70;;
72951;SDS011;61102;51.956;5.878;2022-11-06T09:06:07;3.17;;;0.80;;
72951;SDS011;61102;51.956;5.878;2022-11-06T09:08:33;4.65;;;1.10;;
72951;SDS011;61102;51.956;5.878;2022-11-06T09:10:59;6.57;;;1.33;;
72951;SDS011;61102;51.956;5.878;2022-11-06T09:13:32;3.95;;;0.80;;
72951;SDS011;61102;51.956;5.878;2022-11-06T09:15:58;6.35;;;0.90;;
72951;SDS011;61102;51.956;5.878;2022-11-06T09:18:27;3.28;;;0.65;;
72951;SDS011;61102;51.956;5.878;2022-11-06T09:20:54;6.57;;;1.20;;
72951;SDS011;61102;51.956;5.878;2022-11-06T09:23:21;5.28;;;0.82;;
72951;SDS011;61102;51.956;5.878;2022-11-06T09:25:48;6.60;;;0.88;;
72951;SDS011;61102;51.956;5.878;2022-11-06T09:28:14;5.90;;;1.00;;
72951;SDS011;61102;51.956;5.878;2022-11-06T09:30:43;4.30;;;0.90;;
72951;SDS011;61102;51.956;5.878;2022-11-06T09:33:10;5.30;;;0.90;;
72951;SDS011;61102;51.956;5.878;2022-11-06T09:35:36;5.93;;;0.90;;
72951;SDS011;61102;51.956;5.878;2022-11-06T09:38:03;9.52;;;1.13;;
72951;SDS011;61102;51.956;5.878;2022-11-06T09:40:35;4.65;;;1.00;;
72951;SDS011;61102;51.956;5.878;2022-11-06T09:43:21;6.28;;;0.90;;
72951;SDS011;61102;51.956;5.878;2022-11-06T09:45:51;4.28;;;0.90;;
72951;SDS011;61102;51.956;5.878;2022-11-06T09:48:27;5.57;;;0.90;;
72951;SDS011;61102;51.956;5.878;2022-11-06T09:54:18;6.68;;;0.90;;
72951;SDS011;61102;51.956;5.878;2022-11-06T09:56:54;5.93;;;0.88;;
72951;SDS011;61102;51.956;5.878;2022-11-06T09:59:26;6.90;;;1.00;;
72951;SDS011;61102;51.956;5.878;2022-11-06T10:01:58;4.05;;;0.60;;
72951;SDS011;61102;51.956;5.878;2022-11-06T10:07:28;3.17;;;0.60;;
72951;SDS011;61102;51.956;5.878;2022-11-06T10:10:02;4.20;;;0.80;;
72951;SDS011;61102;51.956;5.878;2022-11-06T10:12:38;5.95;;;0.90;;
72951;SDS011;61102;51.956;5.878;2022-11-06T10:18:14;4.82;;;0.90;;
72951;SDS011;61102;51.956;5.878;2022-11-06T10:20:55;3.60;;;0.85;;
72951;SDS011;61102;51.956;5.878;2022-11-06T10:23:43;5.78;;;0.80;;
72951;SDS011;61102;51.956;5.878;2022-11-06T10:34:29;6.38;;;0.80;;
72951;SDS011;61102;51.956;5.878;2022-11-06T10:37:03;4.75;;;0.70;;
72951;SDS011;61102;51.956;5.878;2022-11-06T10:39:38;7.82;;;1.20;;
72951;SDS011;61102;51.956;5.878;2022-11-06T10:42:15;5.90;;;1.00;;
72951;SDS011;61102;51.956;5.878;2022-11-06T10:44:54;5.75;;;1.00;;
72951;SDS011;61102;51.956;5.878;2022-11-06T10:47:47;6.13;;;0.80;;
72951;SDS011;61102;51.956;5.878;2022-11-06T10:50:32;3.88;;;0.90;;
72951;SDS011;61102;51.956;5.878;2022-11-06T10:53:21;10.05;;;1.02;;
72951;SDS011;61102;51.956;5.878;2022-11-06T10:59:53;7.00;;;0.80;;
72951;SDS011;61102;51.956;5.878;2022-11-06T11:04:57;10.40;;;1.10;;
72951;SDS011;61102;51.956;5.878;2022-11-06T11:07:24;3.95;;;0.73;;
72951;SDS011;61102;51.956;5.878;2022-11-06T11:09:54;5.40;;;1.00;;
72951;SDS011;61102;51.956;5.878;2022-11-06T11:12:25;6.68;;;1.10;;
72951;SDS011;61102;51.956;5.878;2022-11-06T11:15:09;5.85;;;0.85;;
72951;SDS011;61102;51.956;5.878;2022-11-06T11:18:05;4.43;;;0.93;;
72951;SDS011;61102;51.956;5.878;2022-11-06T11:20:34;4.68;;;0.80;;
72951;SDS011;61102;51.956;5.878;2022-11-06T11:25:50;4.80;;;0.70;;
72951;SDS011;61102;51.956;5.878;2022-11-06T11:28:29;3.33;;;0.60;;
72951;SDS011;61102;51.956;5.878;2022-11-06T11:31:12;4.72;;;1.08;;
72951;SDS011;61102;51.956;5.878;2022-11-06T11:33:42;5.00;;;0.88;;
72951;SDS011;61102;51.956;5.878;2022-11-06T11:36:17;5.63;;;0.90;;
72951;SDS011;61102;51.956;5.878;2022-11-06T11:38:43;6.97;;;1.13;;
72951;SDS011;61102;51.956;5.878;2022-11-06T11:41:21;4.03;;;0.70;;
72951;SDS011;61102;51.956;5.878;2022-11-06T11:46:32;6.28;;;0.80;;
72951;SDS011;61102;51.956;5.878;2022-11-06T11:48:58;3.67;;;0.75;;
72951;SDS011;61102;51.956;5.878;2022-11-06T11:56:47;7.80;;;1.05;;
72951;SDS011;61102;51.956;5.878;2022-11-06T11:59:26;4.72;;;0.70;;
72951;SDS011;61102;51.956;5.878;2022-11-06T12:01:55;6.20;;;0.75;;
72951;SDS011;61102;51.956;5.878;2022-11-06T12:04:30;4.20;;;0.77;;
72951;SDS011;61102;51.956;5.878;2022-11-06T12:07:06;5.13;;;0.65;;
72951;SDS011;61102;51.956;5.878;2022-11-06T12:09:40;4.30;;;0.68;;
72951;SDS011;61102;51.956;5.878;2022-11-06T12:12:18;3.03;;;0.60;;
72951;SDS011;61102;51.956;5.878;2022-11-06T12:17:35;5.78;;;0.70;;
72951;SDS011;61102;51.956;5.878;2022-11-06T12:20:05;5.47;;;0.70;;
72951;SDS011;61102;51.956;5.878;2022-11-06T12:22:38;5.63;;;0.70;;
72951;SDS011;61102;51.956;5.878;2022-11-06T12:25:14;5.55;;;1.00;;
72951;SDS011;61102;51.956;5.878;2022-11-06T12:27:46;3.60;;;0.70;;
72951;SDS011;61102;51.956;5.878;2022-11-06T12:30:16;3.15;;;0.50;;
72951;SDS011;61102;51.956;5.878;2022-11-06T12:41:09;4.40;;;0.70;;
72951;SDS011;61102;51.956;5.878;2022-11-06T12:43:47;4.95;;;0.70;;
72951;SDS011;61102;51.956;5.878;2022-11-06T12:59:55;6.00;;;0.70;;
72951;SDS011;61102;51.956;5.878;2022-11-06T13:05:39;6.15;;;0.90;;
72951;SDS011;61102;51.956;5.878;2022-11-06T13:14:03;3.75;;;0.60;;
72951;SDS011;61102;51.956;5.878;2022-11-06T13:27:25;6.82;;;0.68;;
72951;SDS011;61102;51.956;5.878;2022-11-06T13:30:21;3.20;;;0.55;;
72951;SDS011;61102;51.956;5.878;2022-11-06T13:33:07;6.70;;;0.90;;
72951;SDS011;61102;51.956;5.878;2022-11-06T13:35:43;4.03;;;0.50;;
72951;SDS011;61102;51.956;5.878;2022-11-06T13:38:15;4.72;;;0.60;;
72951;SDS011;61102;51.956;5.878;2022-11-06T13:40:46;6.28;;;0.70;;
72951;SDS011;61102;51.956;5.878;2022-11-06T13:43:18;4.47;;;0.80;;
72951;SDS011;61102;51.956;5.878;2022-11-06T13:54:00;3.22;;;0.60;;
72951;SDS011;61102;51.956;5.878;2022-11-06T14:08:11;4.60;;;0.77;;
72951;SDS011;61102;51.956;5.878;2022-11-06T14:10:46;3.38;;;0.50;;
72951;SDS011;61102;51.956;5.878;2022-11-06T14:13:17;3.85;;;0.60;;
72951;SDS011;61102;51.956;5.878;2022-11-06T14:15:49;3.53;;;0.50;;
72951;SDS011;61102;51.956;5.878;2022-11-06T14:18:26;5.47;;;0.60;;
72951;SDS011;61102;51.956;5.878;2022-11-06T14:21:25;3.75;;;0.50;;
72951;SDS011;61102;51.956;5.878;2022-11-06T14:24:03;4.53;;;0.70;;
72951;SDS011;61102;51.956;5.878;2022-11-06T14:26:43;4.68;;;0.80;;
72951;SDS011;61102;51.956;5.878;2022-11-06T14:34:48;3.00;;;0.70;;
72951;SDS011;61102;51.956;5.878;2022-11-06T14:44:52;3.22;;;0.63;;
72951;SDS011;61102;51.956;5.878;2022-11-06T14:49:56;3.17;;;0.50;;
72951;SDS011;61102;51.956;5.878;2022-11-06T14:52:36;4.97;;;0.70;;
72951;SDS011;61102;51.956;5.878;2022-11-06T14:55:07;2.78;;;0.40;;
72951;SDS011;61102;51.956;5.878;2022-11-06T14:57:47;3.53;;;0.50;;
72951;SDS011;61102;51.956;5.878;2022-11-06T15:00:33;3.60;;;0.47;;
72951;SDS011;61102;51.956;5.878;2022-11-06T15:03:06;3.78;;;0.52;;
72951;SDS011;61102;51.956;5.878;2022-11-06T15:05:46;4.15;;;0.57;;
72951;SDS011;61102;51.956;5.878;2022-11-06T15:08:49;3.25;;;0.50;;
72951;SDS011;61102;51.956;5.878;2022-11-06T15:19:00;3.38;;;0.45;;
72951;SDS011;61102;51.956;5.878;2022-11-06T15:21:35;3.65;;;0.60;;
72951;SDS011;61102;51.956;5.878;2022-11-06T15:24:11;3.83;;;0.47;;
72951;SDS011;61102;51.956;5.878;2022-11-06T15:26:45;2.97;;;0.63;;
72951;SDS011;61102;51.956;5.878;2022-11-06T15:29:19;3.00;;;0.80;;
72951;SDS011;61102;51.956;5.878;2022-11-06T15:31:51;2.85;;;0.57;;
72951;SDS011;61102;51.956;5.878;2022-11-06T15:37:07;3.80;;;0.68;;
72951;SDS011;61102;51.956;5.878;2022-11-06T15:39:50;3.50;;;0.60;;
72951;SDS011;61102;51.956;5.878;2022-11-06T15:42:19;6.35;;;0.90;;
72951;SDS011;61102;51.956;5.878;2022-11-06T15:47:40;4.25;;;0.77;;
72951;SDS011;61102;51.956;5.878;2022-11-06T15:50:21;3.00;;;0.80;;
72951;SDS011;61102;51.956;5.878;2022-11-06T15:52:47;4.72;;;0.82;;
72951;SDS011;61102;51.956;5.878;2022-11-06T15:55:23;4.13;;;0.82;;
72951;SDS011;61102;51.956;5.878;2022-11-06T15:57:49;4.47;;;0.80;;
72951;SDS011;61102;51.956;5.878;2022-11-06T16:00:17;3.20;;;0.63;;
72951;SDS011;61102;51.956;5.878;2022-11-06T16:02:58;2.78;;;0.52;;
72951;SDS011;61102;51.956;5.878;2022-11-06T16:05:26;2.80;;;0.68;;
72951;SDS011;61102;51.956;5.878;2022-11-06T16:07:56;5.03;;;0.60;;
72951;SDS011;61102;51.956;5.878;2022-11-06T16:10:24;2.20;;;0.45;;
72951;SDS011;61102;51.956;5.878;2022-11-06T16:12:51;2.95;;;0.50;;
72951;SDS011;61102;51.956;5.878;2022-11-06T16:21:13;2.85;;;0.77;;
72951;SDS011;61102;51.956;5.878;2022-11-06T16:23:56;4.97;;;0.90;;
72951;SDS011;61102;51.956;5.878;2022-11-06T16:29:00;5.20;;;0.95;;
72951;SDS011;61102;51.956;5.878;2022-11-06T16:31:29;4.85;;;0.82;;
72951;SDS011;61102;51.956;5.878;2022-11-06T16:36:22;5.25;;;0.90;;
72951;SDS011;61102;51.956;5.878;2022-11-06T16:38:49;3.28;;;0.75;;
72951;SDS011;61102;51.956;5.878;2022-11-06T16:44:17;5.10;;;0.98;;
72951;SDS011;61102;51.956;5.878;2022-11-06T16:49:31;2.55;;;0.70;;
72951;SDS011;61102;51.956;5.878;2022-11-06T16:51:59;4.32;;;0.80;;
72951;SDS011;61102;51.956;5.878;2022-11-06T16:54:26;3.60;;;0.75;;
72951;SDS011;61102;51.956;5.878;2022-11-06T16:57:06;4.90;;;0.98;;
72951;SDS011;61102;51.956;5.878;2022-11-06T16:59:36;2.63;;;0.90;;
72951;SDS011;61102;51.956;5.878;2022-11-06T17:02:02;2.85;;;0.75;;
72951;SDS011;61102;51.956;5.878;2022-11-06T17:04:29;4.53;;;0.68;;
72951;SDS011;61102;51.956;5.878;2022-11-06T17:06:55;4.03;;;0.70;;
72951;SDS011;61102;51.956;5.878;2022-11-06T17:09:30;3.33;;;0.80;;
72951;SDS011;61102;51.956;5.878;2022-11-06T17:12:08;4.53;;;0.90;;
72951;SDS011;61102;51.956;5.878;2022-11-06T17:14:35;3.10;;;0.70;;
72951;SDS011;61102;51.956;5.878;2022-11-06T17:17:01;4.32;;;0.88;;
72951;SDS011;61102;51.956;5.878;2022-11-06T17:19:28;3.30;;;0.73;;
72951;SDS011;61102;51.956;5.878;2022-11-06T17:21:55;4.63;;;0.90;;
72951;SDS011;61102;51.956;5.878;2022-11-06T17:24:21;4.45;;;0.90;;
72951;SDS011;61102;51.956;5.878;2022-11-06T17:26:48;5.05;;;1.27;;
72951;SDS011;61102;51.956;5.878;2022-11-06T17:29:16;5.93;;;0.93;;
72951;SDS011;61102;51.956;5.878;2022-11-06T17:31:43;5.45;;;1.10;;
72951;SDS011;61102;51.956;5.878;2022-11-06T17:34:09;2.53;;;0.73;;
72951;SDS011;61102;51.956;5.878;2022-11-06T17:36:36;3.60;;;1.48;;
72951;SDS011;61102;51.956;5.878;2022-11-06T17:39:04;5.50;;;1.00;;
72951;SDS011;61102;51.956;5.878;2022-11-06T17:41:30;4.70;;;1.20;;
72951;SDS011;61102;51.956;5.878;2022-11-06T17:46:31;5.20;;;1.17;;
72951;SDS011;61102;51.956;5.878;2022-11-06T17:48:59;3.72;;;1.00;;
72951;SDS011;61102;51.956;5.878;2022-11-06T17:51:27;3.97;;;0.90;;
72951;SDS011;61102;51.956;5.878;2022-11-06T17:54:12;7.32;;;1.40;;
72951;SDS011;61102;51.956;5.878;2022-11-06T17:56:38;3.88;;;1.00;;
72951;SDS011;61102;51.956;5.878;2022-11-06T17:59:05;5.95;;;1.30;;
72951;SDS011;61102;51.956;5.878;2022-11-06T18:01:32;4.72;;;1.00;;
72951;SDS011;61102;51.956;5.878;2022-11-06T18:03:58;3.00;;;0.73;;
72951;SDS011;61102;51.956;5.878;2022-11-06T18:06:28;4.93;;;1.17;;
72951;SDS011;61102;51.956;5.878;2022-11-06T18:08:55;3.75;;;1.08;;
72951;SDS011;61102;51.956;5.878;2022-11-06T18:13:48;6.28;;;1.50;;
72951;SDS011;61102;51.956;5.878;2022-11-06T18:16:15;4.40;;;1.20;;
72951;SDS011;61102;51.956;5.878;2022-11-06T18:18:48;5.32;;;1.20;;
72951;SDS011;61102;51.956;5.878;2022-11-06T18:21:14;5.00;;;1.48;;
72951;SDS011;61102;51.956;5.878;2022-11-06T18:23:41;5.22;;;1.20;;